Time;durP1;ratioP1;P1;durP2;ratioP2;P2;SDS_P1;SDS_P2;PMS_P1;PMS_P2;Temp;Humidity;BMP_temperature;BMP_pressure;BME280_temperature;BME280_humidity;BME280_pressure;Samples;Min_cycle;Max_cycle;Signal;HPM_P1;HPM_P2
2023/11/17 05:39:35;;;;;;;16.30;7.80;;;;;;;5.98;75.89;98270.44;107817;1257;96537;-77
2023/11/17 05:42:03;;;;;;;18.90;8.80;;;;;;;5.97;76.04;98276.29;108377;1235;97682;-80
2023/11/17 05:44:30;;;;;;;20.10;9.00;;;;;;;5.96;75.88;98276.38;108399;1238;96644;-79
2023/11/17 05:47:01;;;;;;;18.10;8.00;;;;;;;5.98;76.05;98277.63;108179;1242;107524;-78
2023/11/17 05:49:28;;;;;;;18.20;8.50;;;;;;;5.98;76.02;98275.02;108443;1232;96712;-78
2023/11/17 05:51:55;;;;;;;20.80;10.20;;;;;;;5.98;76.09;98276.96;108214;1245;96682;-77
2023/11/17 05:54:21;;;;;;;17.90;8.80;;;;;;;6.01;76.08;98276.98;108424;1234;96568;-78
2023/11/17 05:56:52;;;;;;;18.90;9.10;;;;;;;6.01;76.06;98276.94;108405;1232;97926;-78
2023/11/17 05:59:29;;;;;;;18.40;8.90;;;;;;;5.97;76.08;98276.14;108403;1238;107342;-78
2023/11/17 06:02:06;;;;;;;17.50;8.20;;;;;;;5.94;76.05;98276.16;108426;1232;96622;-78
2023/11/17 06:04:37;;;;;;;19.30;9.20;;;;;;;5.93;76.11;98276.02;108510;1232;96444;-78
2023/11/17 06:07:08;;;;;;;21.10;9.80;;;;;;;5.91;76.05;98275.11;111403;1237;109851;-83
2023/11/17 06:09:43;;;;;;;19.20;9.50;;;;;;;5.90;75.99;98274.34;108694;1237;96563;-76
2023/11/17 06:12:17;;;;;;;19.50;9.30;;;;;;;5.90;76.20;98274.65;108895;1235;108086;-73
2023/11/17 06:14:55;;;;;;;;;;;;;;;;;;;;;
2023/11/17 06:17:22;;;;;;;20.20;9.20;;;;;;;5.86;76.11;98267.23;108816;1228;96728;-73
2023/11/17 06:19:49;;;;;;;18.70;9.40;;;;;;;5.84;75.82;98270.64;108628;1229;96653;-74
2023/11/17 06:22:18;;;;;;;19.70;9.70;;;;;;;5.82;76.09;98269.71;108785;1237;97793;-75
2023/11/17 06:24:54;;;;;;;19.50;9.40;;;;;;;5.84;76.07;98261.36;108264;1229;107482;-76
2023/11/17 06:27:25;;;;;;;19.10;9.80;;;;;;;5.82;76.17;98264.27;111671;1234;94473;-74
2023/11/17 06:30:10;;;;;;;;;;;;;;;5.82;76.21;98264.09;109964;1228;96585;-72
2023/11/17 06:32:40;;;;;;;18.40;8.20;;;;;;;5.82;76.20;98263.06;109989;1233;109700;-75
2023/11/17 06:35:26;;;;;;;;;;;;;;;;;;;;;
2023/11/17 06:37:57;;;;;;;20.00;9.50;;;;;;;5.82;76.26;98264.43;108938;1234;108160;-76
2023/11/17 06:40:27;;;;;;;22.00;10.00;;;;;;;5.85;76.07;98263.42;108768;1233;97481;-74
2023/11/17 06:42:53;;;;;;;17.90;8.50;;;;;;;5.86;76.20;98264.39;108504;1241;97031;-74
2023/11/17 06:45:29;;;;;;;15.80;7.20;;;;;;;5.86;76.20;98263.69;108392;1238;96722;-74
2023/11/17 06:47:55;;;;;;;22.00;9.40;;;;;;;5.82;76.21;98264.98;108396;1244;96633;-77
2023/11/17 06:50:25;;;;;;;19.00;8.90;;;;;;;5.82;76.18;98264.63;108429;1236;96633;-75
2023/11/17 06:52:52;;;;;;;20.40;10.00;;;;;;;5.83;76.07;98265.27;108514;1236;97744;-74
2023/11/17 06:55:19;;;;;;;20.80;10.90;;;;;;;5.84;76.31;98267.33;108763;1233;96483;-74
2023/11/17 06:58:16;;;;;;;;;;;;;;;;;;;;;
2023/11/17 07:01:28;;;;;;;18.80;9.20;;;;;;;5.82;76.30;98264.43;108536;1237;97896;-74
2023/11/17 07:04:11;;;;;;;;;;;;;;;;;;;;;
2023/11/17 07:06:47;;;;;;;20.80;9.80;;;;;;;5.89;76.49;98262.41;108521;1235;96648;-74
2023/11/17 07:09:19;;;;;;;21.60;10.10;;;;;;;5.91;76.29;98263.30;108513;1241;96627;-76
2023/11/17 07:11:52;;;;;;;21.00;10.30;;;;;;;5.94;76.36;98262.92;108595;1238;109813;-74
2023/11/17 07:14:35;;;;;;;19.90;9.50;;;;;;;5.94;76.47;98262.41;108677;1229;96505;-75
2023/11/17 07:17:04;;;;;;;20.10;9.40;;;;;;;5.93;76.24;98261.41;108692;1235;107531;-74
2023/11/17 07:19:37;;;;;;;18.10;9.00;;;;;;;5.96;76.38;98263.89;108673;1233;96976;-80
2023/11/17 07:22:05;;;;;;;18.60;9.00;;;;;;;5.99;76.45;98262.27;108418;1243;96532;-78
2023/11/17 07:24:32;;;;;;;20.60;9.50;;;;;;;6.01;76.42;98264.29;108608;1237;109359;-74
2023/11/17 07:27:10;;;;;;;18.50;8.90;;;;;;;6.02;76.47;98264.23;108571;1238;96571;-75
2023/11/17 07:29:47;;;;;;;22.50;9.70;;;;;;;6.01;76.49;98263.77;108573;1233;105990;-74
2023/11/17 07:32:13;;;;;;;20.00;10.10;;;;;;;6.05;76.61;98268.80;108642;1240;96661;-74
2023/11/17 07:34:40;;;;;;;20.00;9.10;;;;;;;6.08;76.50;98267.88;108623;1243;96616;-74
2023/11/17 07:37:07;;;;;;;20.30;9.80;;;;;;;6.13;76.68;98264.20;108370;1237;96573;-74
2023/11/17 07:39:34;;;;;;;20.00;10.00;;;;;;;6.10;76.38;98266.67;108679;1241;96563;-74
2023/11/17 07:42:04;;;;;;;20.70;9.70;;;;;;;6.09;76.60;98270.60;108494;1241;96503;-74
2023/11/17 07:44:36;;;;;;;19.60;10.00;;;;;;;6.12;76.61;98272.73;108377;1237;96582;-73
2023/11/17 07:47:05;;;;;;;20.50;9.50;;;;;;;6.15;76.58;98275.72;108590;1237;96470;-73
2023/11/17 07:49:34;;;;;;;18.90;9.40;;;;;;;6.16;76.46;98272.79;108719;1231;96566;-74
2023/11/17 07:52:21;;;;;;;22.80;10.20;;;;;;;6.17;76.59;98275.35;108696;1233;96477;-76
2023/11/17 07:54:49;;;;;;;19.10;9.60;;;;;;;6.20;76.63;98273.95;108441;1233;105784;-74
2023/11/17 07:57:18;;;;;;;18.00;8.60;;;;;;;6.19;76.43;98275.59;108635;1234;97383;-73
2023/11/17 07:59:48;;;;;;;20.10;9.50;;;;;;;6.15;76.63;98274.98;108825;1234;97842;-74
2023/11/17 08:02:36;;;;;;;18.90;9.30;;;;;;;6.18;76.77;98275.31;108502;1235;109340;-73
2023/11/17 08:05:04;;;;;;;19.60;9.20;;;;;;;6.19;76.67;98279.81;108507;1239;97709;-74
2023/11/17 08:07:31;;;;;;;20.20;9.20;;;;;;;6.19;76.56;98273.46;108421;1244;107146;-75
2023/11/17 08:09:58;;;;;;;22.70;9.70;;;;;;;6.20;76.53;98272.89;108389;1235;97544;-74
2023/11/17 08:12:33;;;;;;;20.10;8.50;;;;;;;6.21;76.74;98272.30;108224;1229;96690;-77
2023/11/17 08:15:01;;;;;;;21.10;10.00;;;;;;;6.21;76.61;98275.25;108458;1235;109719;-74
2023/11/17 08:17:28;;;;;;;18.70;8.80;;;;;;;6.25;76.74;98277.33;108606;1237;97379;-73
2023/11/17 08:19:55;;;;;;;21.40;8.60;;;;;;;6.29;76.89;98275.79;108598;1241;97350;-73
2023/11/17 08:22:29;;;;;;;18.40;8.70;;;;;;;6.32;76.78;98279.86;108737;1235;96643;-74
2023/11/17 08:24:56;;;;;;;18.40;8.80;;;;;;;6.32;76.79;98277.00;108673;1233;96585;-75
2023/11/17 08:27:23;;;;;;;18.90;8.80;;;;;;;6.39;76.79;98281.13;108524;1233;96575;-74
2023/11/17 08:29:53;;;;;;;19.90;9.30;;;;;;;6.47;76.80;98278.30;108461;1233;97800;-74
2023/11/17 08:32:20;;;;;;;16.50;8.20;;;;;;;6.57;76.96;98276.72;108513;1232;106337;-74
2023/11/17 08:34:49;;;;;;;17.30;8.00;;;;;;;6.64;76.69;98280.99;108591;1236;97491;-78
2023/11/17 08:37:38;;;;;;;18.50;8.60;;;;;;;6.68;76.97;98281.05;108696;1241;96639;-72
2023/11/17 08:40:18;;;;;;;19.70;9.00;;;;;;;6.74;76.97;98282.61;108625;1234;108226;-77
2023/11/17 08:42:46;;;;;;;19.90;8.50;;;;;;;6.77;76.95;98282.59;111804;1228;94692;-74
2023/11/17 08:45:16;;;;;;;18.10;8.40;;;;;;;6.82;76.89;98281.39;111911;1228;106937;-73
2023/11/17 08:47:48;;;;;;;18.70;8.40;;;;;;;6.85;76.91;98287.48;108993;1236;97898;-73
2023/11/17 08:50:21;;;;;;;19.00;8.40;;;;;;;6.89;77.02;98286.70;109007;1235;96649;-73
2023/11/17 08:52:58;;;;;;;16.40;7.20;;;;;;;6.94;76.92;98287.42;110122;1233;96601;-75
2023/11/17 08:55:27;;;;;;;15.60;6.60;;;;;;;6.97;76.89;98285.04;108482;1234;96649;-75
2023/11/17 08:57:54;;;;;;;16.10;7.80;;;;;;;7.02;76.92;98285.05;108554;1234;107850;-74
2023/11/17 09:00:35;;;;;;;16.80;7.60;;;;;;;7.05;76.84;98288.38;108399;1234;98008;-73
2023/11/17 09:03:06;;;;;;;15.90;7.50;;;;;;;7.04;76.93;98286.53;108792;1233;97890;-74
2023/11/17 09:05:42;;;;;;;18.30;7.80;;;;;;;7.06;77.10;98284.83;108399;1240;109302;-75
2023/11/17 09:08:12;;;;;;;17.00;7.70;;;;;;;7.11;77.04;98280.73;108704;1233;96586;-73
2023/11/17 09:10:42;;;;;;;17.60;7.40;;;;;;;7.17;77.09;98284.20;108532;1234;108535;-74
2023/11/17 09:13:14;;;;;;;16.50;7.40;;;;;;;7.23;77.15;98284.16;108499;1238;96636;-74
2023/11/17 09:15:44;;;;;;;16.10;7.60;;;;;;;7.27;77.18;98280.67;108628;1235;96585;-75
2023/11/17 09:18:15;;;;;;;17.10;7.60;;;;;;;7.33;77.21;98279.41;108537;1234;109733;-74
2023/11/17 09:20:42;;;;;;;15.80;7.00;;;;;;;7.32;77.12;98281.59;108446;1244;96672;-76
2023/11/17 09:23:09;;;;;;;17.40;6.80;;;;;;;7.34;77.20;98277.92;108468;1234;96572;-74
2023/11/17 09:25:36;;;;;;;15.20;6.70;;;;;;;7.39;77.19;98276.61;108354;1234;97638;-75
2023/11/17 09:28:06;;;;;;;15.90;6.80;;;;;;;7.44;77.22;98274.68;108701;1242;96613;-74
2023/11/17 09:30:45;;;;;;;16.00;7.10;;;;;;;7.43;77.21;98270.70;108834;1242;111238;-75
2023/11/17 09:33:34;;;;;;;15.30;6.50;;;;;;;7.47;77.18;98270.23;108674;1238;96648;-74
2023/11/17 09:36:11;;;;;;;15.00;6.70;;;;;;;7.48;77.12;98268.45;108720;1235;96496;-74
2023/11/17 09:38:38;;;;;;;16.90;6.40;;;;;;;7.52;77.26;98271.30;108733;1235;96569;-75
2023/11/17 09:41:34;;;;;;;14.70;6.40;;;;;;;7.55;77.29;98267.72;108806;1234;97849;-76
2023/11/17 09:44:02;;;;;;;17.00;7.60;;;;;;;7.56;77.12;98265.21;108548;1236;108703;-75
2023/11/17 09:46:32;;;;;;;13.90;6.20;;;;;;;7.54;77.17;98267.42;108582;1238;96550;-74
2023/11/17 09:49:03;;;;;;;13.90;5.80;;;;;;;7.58;77.30;98264.89;108489;1229;107148;-75
2023/11/17 09:51:33;;;;;;;14.60;6.70;;;;;;;7.61;77.28;98265.20;108182;1243;96553;-73
2023/11/17 09:54:02;;;;;;;11.40;5.70;;;;;;;7.61;77.30;98261.83;108782;1233;96650;-74
2023/11/17 09:56:34;;;;;;;13.10;6.30;;;;;;;7.61;77.20;98261.64;108638;1229;109780;-75
2023/11/17 09:59:13;;;;;;;14.10;6.40;;;;;;;7.60;77.23;98261.34;108771;1229;97027;-75
2023/11/17 10:01:40;;;;;;;14.60;5.90;;;;;;;7.57;77.20;98253.44;108516;1234;107406;-75
2023/11/17 10:04:19;;;;;;;19.40;9.20;;;;;;;7.54;77.20;98258.45;108623;1237;96758;-74
2023/11/17 10:07:06;;;;;;;;;;;;;;;;;;;;;
2023/11/17 10:09:34;;;;;;;9.30;4.70;;;;;;;7.48;77.08;98254.30;108637;1235;109701;-75
2023/11/17 10:12:09;;;;;;;13.10;5.40;;;;;;;7.46;77.08;98251.08;108578;1233;96643;-75
2023/11/17 10:14:38;;;;;;;11.40;4.90;;;;;;;7.43;77.12;98250.43;108467;1234;105532;-75
2023/11/17 10:17:31;;;;;;;13.00;5.10;;;;;;;7.42;77.24;98250.51;108594;1233;97340;-74
2023/11/17 10:20:15;;;;;;;13.80;5.70;;;;;;;7.36;76.99;98249.51;108385;1235;96554;-74
2023/11/17 10:22:42;;;;;;;10.20;4.60;;;;;;;7.33;77.13;98248.50;108688;1233;109193;-75
2023/11/17 10:25:21;;;;;;;14.60;5.50;;;;;;;7.35;77.19;98249.21;108690;1235;96554;-77
2023/11/17 10:27:57;;;;;;;17.00;6.60;;;;;;;7.35;77.08;98250.51;108540;1244;107452;-77
2023/11/17 10:30:47;;;;;;;;;;;;;;;;;;;;;
2023/11/17 10:33:44;;;;;;;18.00;6.50;;;;;;;7.41;77.15;98249.52;111908;1228;94562;-73
2023/11/17 10:36:20;;;;;;;14.80;6.00;;;;;;;7.41;77.10;98245.64;112010;1228;109152;-74
2023/11/17 10:38:47;;;;;;;17.50;6.60;;;;;;;7.43;77.25;98245.11;111723;1228;95170;-73
2023/11/17 10:41:19;;;;;;;14.20;5.40;;;;;;;7.45;77.25;98240.02;111876;1228;107473;-74
2023/11/17 10:43:50;;;;;;;15.20;6.20;;;;;;;7.48;77.21;98245.48;111649;1229;94266;-73
2023/11/17 10:46:28;;;;;;;13.70;5.60;;;;;;;7.49;77.23;98249.10;111945;1228;94201;-73
2023/11/17 10:49:04;;;;;;;11.20;4.80;;;;;;;7.53;77.20;98247.97;111824;1231;109464;-73
2023/11/17 10:51:59;;;;;;;9.70;4.80;;;;;;;7.53;77.11;98247.44;111935;1229;94616;-74
2023/11/17 10:54:29;;;;;;;14.00;5.40;;;;;;;7.52;77.13;98250.98;111958;1228;107626;-73
2023/11/17 10:57:18;;;;;;;11.60;5.10;;;;;;;7.56;77.21;98249.46;111645;1228;94478;-74
2023/11/17 10:59:46;;;;;;;14.00;5.60;;;;;;;7.58;77.09;98251.05;111874;1229;94170;-73
2023/11/17 11:04:09;;;;;;;14.30;6.60;;;;;;;7.62;77.11;98247.09;102684;1295;635170;-74
2023/11/17 11:06:46;;;;;;;;;;;;;;;;;;;;;
2023/11/17 11:09:20;;;;;;;11.90;5.00;;;;;;;7.69;77.15;98239.56;104741;1263;94240;-74
2023/11/17 11:11:53;;;;;;;11.90;5.20;;;;;;;7.67;77.29;98236.48;104866;1263;106930;-75
2023/11/17 11:14:21;;;;;;;9.50;4.80;;;;;;;7.68;77.08;98236.98;104946;1258;95251;-77
2023/11/17 11:16:55;;;;;;;11.50;5.20;;;;;;;7.65;77.08;98236.30;105043;1263;177970;-74
2023/11/17 11:22:38;;;;;;;10.80;5.10;;;;;;;7.69;77.33;98238.80;104925;1256;95289;-78
2023/11/17 11:25:13;;;;;;;11.70;5.10;;;;;;;7.73;77.27;98241.67;105450;1254;107209;-76
2023/11/17 11:27:45;;;;;;;11.40;5.00;;;;;;;7.78;77.37;98243.44;105044;1268;96110;-74
2023/11/17 11:30:20;;;;;;;8.40;4.10;;;;;;;7.77;77.45;98241.25;105249;1256;107455;-76
2023/11/17 11:32:57;;;;;;;9.50;4.10;;;;;;;7.78;77.21;98240.13;105275;1256;95274;-74
2023/11/17 11:35:51;;;;;;;9.00;4.10;;;;;;;7.77;77.22;98242.14;105409;1254;95326;-75
2023/11/17 11:38:22;;;;;;;10.90;5.50;;;;;;;7.78;77.32;98247.90;105053;1254;108521;-75
2023/11/17 11:41:01;;;;;;;11.20;4.70;;;;;;;7.80;77.44;98248.82;105210;1254;95471;-79
2023/11/17 11:43:32;;;;;;;10.70;4.50;;;;;;;7.83;77.20;98249.30;105219;1257;106174;-76
2023/11/17 11:46:10;;;;;;;11.50;4.80;;;;;;;7.83;77.24;98250.84;105223;1253;95256;-74
2023/11/17 11:48:59;;;;;;;10.60;4.40;;;;;;;7.81;77.21;98251.70;105224;1257;95295;-73
2023/11/17 11:51:35;;;;;;;10.10;4.80;;;;;;;7.80;77.15;98250.41;104895;1261;108140;-75
2023/11/17 11:54:16;;;;;;;;;;;;;;;;;;;;;
2023/11/17 11:57:03;;;;;;;;;;;;;;;;;;;;;
2023/11/17 11:59:40;;;;;;;10.90;4.40;;;;;;;7.82;77.49;98252.48;104907;1269;95242;-78
2023/11/17 12:02:19;;;;;;;;;;;;;;;;;;;;;
2023/11/17 12:05:05;;;;;;;9.90;4.60;;;;;;;7.85;77.28;98254.55;105169;1264;107229;-75
2023/11/17 12:07:37;;;;;;;9.10;4.50;;;;;;;7.88;77.25;98257.36;105344;1268;95253;-74
2023/11/17 12:10:24;;;;;;;9.90;5.10;;;;;;;7.89;77.28;98255.14;106903;1253;107598;-75
2023/11/17 12:12:57;;;;;;;12.00;5.30;;;;;;;7.87;77.18;98253.72;105134;1267;95275;-75
2023/11/17 12:15:32;;;;;;;11.00;5.40;;;;;;;7.87;77.11;98254.59;105303;1256;95251;-74
2023/11/17 12:18:11;;;;;;;10.30;5.00;;;;;;;7.88;77.19;98256.27;105219;1270;107328;-74
2023/11/17 12:20:42;;;;;;;12.20;5.30;;;;;;;7.89;77.33;98254.29;105169;1260;95964;-78
2023/11/17 12:23:12;;;;;;;16.10;6.20;;;;;;;7.84;77.10;98256.42;105115;1268;107611;-74
2023/11/17 12:25:42;;;;;;;11.00;5.50;;;;;;;7.80;77.11;98258.31;105148;1255;95249;-76
2023/11/17 12:28:17;;;;;;;14.70;6.70;;;;;;;7.75;77.09;98257.98;105455;1254;95650;-75
2023/11/17 12:31:11;;;;;;;14.40;6.20;;;;;;;7.68;77.35;98257.44;105206;1260;108398;-75
2023/11/17 12:34:11;;;;;;;14.30;6.70;;;;;;;7.66;77.26;98260.80;105095;1261;95830;-75
2023/11/17 12:37:17;;;;;;;13.80;6.50;;;;;;;7.63;77.34;98266.28;105032;1259;107634;-75
2023/11/17 12:39:48;;;;;;;13.90;6.50;;;;;;;7.55;77.13;98266.52;105117;1254;96193;-75
2023/11/17 12:42:43;;;;;;;14.90;7.00;;;;;;;7.49;77.15;98267.66;105344;1254;95206;-75
2023/11/17 12:46:00;;;;;;;31.50;18.10;;;;;;;7.50;77.41;98272.51;105063;1260;108511;-74
2023/11/17 12:48:27;;;;;;;20.30;9.80;;;;;;;7.46;77.19;98267.35;105117;1254;96091;-76
2023/11/17 12:51:03;;;;;;;14.00;6.50;;;;;;;7.42;77.23;98272.17;105355;1261;107655;-74
2023/11/17 12:54:09;;;;;;;;;;;;;;;;;;;;;
2023/11/17 12:56:38;;;;;;;18.40;8.20;;;;;;;7.19;76.90;98264.14;105203;1254;95199;-75
2023/11/17 12:59:07;;;;;;;17.50;8.60;;;;;;;7.10;77.09;98271.67;105194;1254;108181;-75
2023/11/17 13:02:05;;;;;;;;;;;;;;;;;;;;;
2023/11/17 13:04:45;;;;;;;19.90;8.80;;;;;;;7.15;77.27;98273.55;105376;1258;107675;-78
2023/11/17 13:07:15;;;;;;;21.90;9.70;;;;;;;7.18;77.33;98273.56;105209;1254;95220;-75
2023/11/17 13:10:11;;;;;;;24.00;11.90;;;;;;;7.19;77.16;98271.18;105143;1267;95250;-74
2023/11/17 13:13:06;;;;;;;22.80;11.60;;;;;;;7.18;77.17;98275.11;105281;1259;108545;-75
2023/11/17 13:15:34;;;;;;;24.80;14.00;;;;;;;7.11;77.05;98280.76;105294;1260;95575;-75
2023/11/17 13:18:08;;;;;;;22.80;12.10;;;;;;;7.04;76.90;98282.12;105118;1254;105872;-75
2023/11/17 13:21:00;;;;;;;25.30;12.10;;;;;;;7.00;76.92;98286.13;105410;1254;95268;-75
2023/11/17 13:23:34;;;;;;;21.80;11.50;;;;;;;6.93;76.89;98283.63;105159;1257;95266;-74
2023/11/17 13:26:20;;;;;;;23.50;11.30;;;;;;;6.89;77.05;98286.02;105146;1260;108497;-75
2023/11/17 13:28:54;;;;;;;21.60;11.10;;;;;;;6.75;77.07;98293.80;105075;1260;96019;-76
2023/11/17 13:31:24;;;;;;;25.00;12.60;;;;;;;6.68;76.86;98294.46;105227;1258;106276;-74
2023/11/17 13:34:00;;;;;;;27.40;13.80;;;;;;;6.61;77.00;98297.23;105488;1254;95622;-77
2023/11/17 13:36:41;;;;;;;28.00;15.40;;;;;;;6.56;76.98;98296.16;105339;1261;95434;-74
2023/11/17 13:39:36;;;;;;;28.80;15.50;;;;;;;6.51;76.69;98293.89;105163;1258;108442;-75
2023/11/17 13:42:16;;;;;;;;;;;;;;;;;;;;;
2023/11/17 13:44:52;;;;;;;28.80;15.60;;;;;;;6.47;77.14;98297.30;105482;1255;108040;-75
2023/11/17 13:47:29;;;;;;;27.10;14.50;;;;;;;6.54;77.30;98297.86;105305;1257;95221;-74
2023/11/17 13:50:16;;;;;;;26.70;13.50;;;;;;;6.62;77.37;98300.67;105463;1257;95150;-75
2023/11/17 13:52:45;;;;;;;25.30;13.50;;;;;;;6.64;77.28;98301.08;108675;1253;109115;-75
2023/11/17 13:55:18;;;;;;;26.00;14.50;;;;;;;6.59;77.13;98305.71;107265;1255;94301;-75
2023/11/17 13:57:48;;;;;;;24.80;13.30;;;;;;;6.57;77.07;98303.65;105562;1265;107701;-74
2023/11/17 14:00:42;;;;;;;25.00;13.20;;;;;;;6.55;77.10;98309.61;105374;1266;95302;-74
2023/11/17 14:03:27;;;;;;;;;;;;;;;;;;;;;
2023/11/17 14:06:05;;;;;;;23.30;12.30;;;;;;;6.47;77.05;98315.47;105178;1258;108606;-77
2023/11/17 14:08:35;;;;;;;26.10;13.80;;;;;;;6.37;76.94;98318.61;105241;1259;95343;-76
2023/11/17 14:11:10;;;;;;;25.40;13.10;;;;;;;6.27;77.15;98319.77;105385;1254;107607;-81
2023/11/17 14:13:43;;;;;;;24.80;13.30;;;;;;;6.21;77.01;98315.23;105282;1256;95266;-76
2023/11/17 14:16:14;;;;;;;29.00;15.40;;;;;;;6.23;77.29;98316.73;105455;1256;95234;-75
2023/11/17 14:18:54;;;;;;;25.70;13.60;;;;;;;6.22;77.14;98319.02;105391;1254;108527;-76
2023/11/17 14:21:22;;;;;;;25.40;13.60;;;;;;;6.19;76.96;98326.63;105096;1254;95284;-74
2023/11/17 14:23:52;;;;;;;28.00;14.60;;;;;;;6.18;77.28;98327.08;105141;1261;107717;-75
2023/11/17 14:26:37;;;;;;;26.40;14.10;;;;;;;6.17;77.13;98323.63;105176;1267;96175;-75
2023/11/17 14:29:27;;;;;;;;;;;;;;;;;;;;;
2023/11/17 14:31:56;;;;;;;26.20;14.30;;;;;;;6.26;77.35;98332.34;105412;1254;108589;-75
2023/11/17 14:34:26;;;;;;;26.90;15.10;;;;;;;6.27;77.32;98339.51;105359;1264;95464;-78
2023/11/17 14:36:57;;;;;;;26.30;14.20;;;;;;;6.31;77.50;98339.81;105226;1253;107708;-74
2023/11/17 14:39:33;;;;;;;28.20;14.60;;;;;;;6.27;77.26;98343.74;105239;1260;95179;-76
2023/11/17 14:42:03;;;;;;;25.50;13.60;;;;;;;6.23;77.57;98352.27;105288;1254;95361;-74
2023/11/17 14:44:31;;;;;;;27.70;14.70;;;;;;;6.22;77.36;98355.86;105337;1260;108156;-75
2023/11/17 14:47:04;;;;;;;27.70;16.20;;;;;;;6.22;77.53;98358.11;105353;1259;95343;-79
2023/11/17 14:49:42;;;;;;;28.70;17.40;;;;;;;6.18;77.46;98361.02;105287;1254;107628;-74
2023/11/17 14:52:11;;;;;;;27.90;15.50;;;;;;;6.19;77.55;98366.80;105322;1267;95210;-75
2023/11/17 14:54:41;;;;;;;27.70;16.80;;;;;;;6.21;77.48;98368.91;105378;1256;95252;-75
2023/11/17 14:57:14;;;;;;;29.50;18.80;;;;;;;6.22;77.53;98369.25;105133;1259;108572;-74
2023/11/17 14:59:56;;;;;;;29.60;17.00;;;;;;;6.22;77.61;98371.70;105244;1254;95243;-75
